createdAt,value
2023-03-12T00:00:38.155Z,55.85
2023-03-12T00:01:38.139Z,54.94
2023-03-12T00:02:38.184Z,55.60
2023-03-12T00:03:38.217Z,54.92
2023-03-12T00:04:38.141Z,55.28
2023-03-12T00:05:38.143Z,55.66
2023-03-12T00:06:38.129Z,55.84
2023-03-12T00:07:38.104Z,57.60
2023-03-12T00:08:38.124Z,56.55
2023-03-12T00:09:38.098Z,56.50
2023-03-12T00:10:38.085Z,56.48
2023-03-12T00:11:38.065Z,56.20
2023-03-12T00:12:38.081Z,56.25
2023-03-12T00:13:38.052Z,57.96
2023-03-12T00:14:38.055Z,57.50
2023-03-12T00:15:38.197Z,57.84
2023-03-12T00:16:38.028Z,56.70
2023-03-12T00:17:38.035Z,56.73
2023-03-12T00:18:38.025Z,56.62
2023-03-12T00:19:38.063Z,56.51
2023-03-12T00:20:38.008Z,57.43
2023-03-12T00:21:38.032Z,58.36
2023-03-12T00:22:38.009Z,57.43
2023-03-12T00:23:37.977Z,60.05
2023-03-12T00:24:37.984Z,57.43
2023-03-12T00:25:37.999Z,57.84
2023-03-12T00:26:37.976Z,56.10
2023-03-12T00:27:38.377Z,57.66
2023-03-12T00:28:37.986Z,56.19
2023-03-12T00:29:37.981Z,56.33
2023-03-12T00:30:37.947Z,56.56
2023-03-12T00:31:38.057Z,56.71
2023-03-12T00:32:37.960Z,56.54
2023-03-12T00:33:37.962Z,56.84
2023-03-12T00:34:37.930Z,56.81
2023-03-12T00:35:37.916Z,57.53
2023-03-12T00:36:37.915Z,56.83
2023-03-12T00:37:37.893Z,56.98
2023-03-12T00:38:37.893Z,58.55
2023-03-12T00:39:37.901Z,58.72
2023-03-12T00:40:37.852Z,56.63
2023-03-12T00:41:37.881Z,57.74
2023-03-12T00:42:37.868Z,56.92
2023-03-12T00:43:37.850Z,57.76
2023-03-12T00:44:37.847Z,56.60
2023-03-12T00:45:37.870Z,56.11
2023-03-12T00:46:43.975Z,56.07
2023-03-12T00:47:37.818Z,58.91
2023-03-12T00:48:37.807Z,55.88
2023-03-12T00:49:37.806Z,58.10
2023-03-12T00:50:37.807Z,55.56
2023-03-12T00:51:37.829Z,56.69
2023-03-12T00:52:37.793Z,55.14
2023-03-12T00:53:37.796Z,54.54
2023-03-12T00:54:37.790Z,54.46
2023-03-12T00:55:37.756Z,55.13
2023-03-12T00:56:37.767Z,55.37
2023-03-12T00:57:37.810Z,55.45
2023-03-12T00:58:37.756Z,55.71
2023-03-12T00:59:37.763Z,55.59
2023-03-12T01:00:37.752Z,55.94
2023-03-12T01:01:37.715Z,56.96
2023-03-12T01:02:37.738Z,56.78
2023-03-12T01:03:37.849Z,55.86
2023-03-12T01:04:37.692Z,55.71
2023-03-12T01:05:37.705Z,56.00
2023-03-12T01:06:37.695Z,55.93
2023-03-12T01:07:37.688Z,55.73
2023-03-12T01:08:37.683Z,55.94
2023-03-12T01:09:37.737Z,58.04
2023-03-12T01:10:37.675Z,55.84
2023-03-12T01:11:37.682Z,55.59
2023-03-12T01:12:37.652Z,55.60
2023-03-12T01:13:37.647Z,55.34
2023-03-12T01:14:37.657Z,55.59
2023-03-12T01:15:37.699Z,57.65
2023-03-12T01:16:37.672Z,56.02
2023-03-12T01:17:37.629Z,56.35
2023-03-12T01:18:37.648Z,56.39
2023-03-12T01:19:37.625Z,56.08
2023-03-12T01:20:37.617Z,57.89
2023-03-12T01:21:37.663Z,56.40
2023-03-12T01:22:37.590Z,56.13
2023-03-12T01:23:37.610Z,56.13
2023-03-12T01:24:37.574Z,56.32
2023-03-12T01:25:37.587Z,56.21
2023-03-12T01:26:37.559Z,57.24
2023-03-12T01:27:37.622Z,58.49
2023-03-12T01:28:37.553Z,56.29
2023-03-12T01:29:37.574Z,56.28
2023-03-12T01:30:37.560Z,56.29
2023-03-12T01:31:37.628Z,56.44
2023-03-12T01:32:37.558Z,55.84
2023-03-12T01:33:38.009Z,57.51
2023-03-12T01:34:37.501Z,57.97
2023-03-12T01:35:37.660Z,56.08
2023-03-12T01:36:37.489Z,55.67
2023-03-12T01:37:37.483Z,55.74
2023-03-12T01:38:37.476Z,55.82
2023-03-12T01:39:37.539Z,55.73
2023-03-12T01:40:37.470Z,55.77
2023-03-12T01:41:37.480Z,56.27
2023-03-12T01:42:37.466Z,56.56
2023-03-12T01:43:37.454Z,56.02
2023-03-12T01:44:37.436Z,55.95
2023-03-12T01:45:37.563Z,56.12
2023-03-12T01:46:37.435Z,55.75
2023-03-12T01:47:37.422Z,57.30
2023-03-12T01:48:37.399Z,56.55
2023-03-12T01:49:37.430Z,56.14
2023-03-12T01:50:37.385Z,58.02
2023-03-12T01:51:37.444Z,56.23
2023-03-12T01:52:37.389Z,56.37
2023-03-12T01:53:37.377Z,57.50
2023-03-12T01:54:37.371Z,55.65
2023-03-12T01:55:37.355Z,55.53
2023-03-12T01:56:37.372Z,55.75
2023-03-12T01:57:37.397Z,56.31
2023-03-12T01:58:37.351Z,55.36
2023-03-12T01:59:37.334Z,55.58
2023-03-12T02:00:37.342Z,55.95
2023-03-12T02:01:37.330Z,57.93
2023-03-12T02:02:37.311Z,55.98
2023-03-12T02:03:37.376Z,55.15
2023-03-12T02:04:37.314Z,55.08
2023-03-12T02:05:37.298Z,55.26
2023-03-12T02:06:37.287Z,55.45
2023-03-12T02:07:37.282Z,55.13
2023-03-12T02:08:37.274Z,56.99
2023-03-12T02:09:37.297Z,57.64
2023-03-12T02:10:37.257Z,56.06
2023-03-12T02:11:37.268Z,58.14
2023-03-12T02:12:37.242Z,57.65
2023-03-12T02:13:37.230Z,55.34
2023-03-12T02:14:37.241Z,55.68
2023-03-12T02:15:37.258Z,55.52
2023-03-12T02:16:37.233Z,55.25
2023-03-12T02:17:38.328Z,55.50
2023-03-12T02:18:37.208Z,55.83
2023-03-12T02:19:37.212Z,58.34
2023-03-12T02:20:37.192Z,55.81
2023-03-12T02:21:37.239Z,55.59
2023-03-12T02:22:37.184Z,55.43
2023-03-12T02:23:37.197Z,55.87
2023-03-12T02:24:37.180Z,55.88
2023-03-12T02:25:37.170Z,56.16
2023-03-12T02:26:37.178Z,56.54
2023-03-12T02:27:37.233Z,56.34
2023-03-12T02:28:37.143Z,56.87
2023-03-12T02:29:37.134Z,56.69
2023-03-12T02:30:37.159Z,55.96
2023-03-12T02:31:37.339Z,56.22
2023-03-12T02:32:37.191Z,56.01
2023-03-12T02:33:37.487Z,55.11
2023-03-12T02:34:37.261Z,55.02
2023-03-12T02:35:37.184Z,55.23
2023-03-12T02:36:37.125Z,55.26
2023-03-12T02:37:37.122Z,55.58
2023-03-12T02:38:37.107Z,57.52
2023-03-12T02:39:37.205Z,55.78
2023-03-12T02:40:37.061Z,56.25
2023-03-12T02:41:37.085Z,56.77
2023-03-12T02:42:37.086Z,56.45
2023-03-12T02:43:37.170Z,59.40
2023-03-12T02:44:37.048Z,57.72
2023-03-12T02:45:37.092Z,56.64
2023-03-12T02:46:37.061Z,55.92
2023-03-12T02:47:37.021Z,55.86
2023-03-12T02:48:37.014Z,55.91
2023-03-12T02:49:37.018Z,56.52
2023-03-12T02:50:37.001Z,56.43
2023-03-12T02:51:37.058Z,56.02
2023-03-12T02:52:37.163Z,55.83
2023-03-12T02:53:37.014Z,55.85
2023-03-12T02:54:36.992Z,55.67
2023-03-12T02:55:36.993Z,55.72
2023-03-12T02:56:37.009Z,55.39
2023-03-12T02:57:37.075Z,56.52
2023-03-12T02:58:36.966Z,55.60
2023-03-12T02:59:36.974Z,57.25
2023-03-12T03:00:54.339Z,56.05
2023-03-12T03:01:37.023Z,56.81
2023-03-12T03:02:36.923Z,56.61
2023-03-12T03:03:36.962Z,56.52
2023-03-12T03:04:36.909Z,56.16
2023-03-12T03:05:36.901Z,55.91
2023-03-12T03:06:36.896Z,55.83
2023-03-12T03:07:36.891Z,55.42
2023-03-12T03:08:37.018Z,55.94
2023-03-12T03:09:36.930Z,56.18
2023-03-12T03:10:36.909Z,57.66
2023-03-12T03:11:36.848Z,55.66
2023-03-12T03:12:36.882Z,55.91
2023-03-12T03:13:36.886Z,58.72
2023-03-12T03:14:36.845Z,56.60
2023-03-12T03:15:36.946Z,56.52
2023-03-12T03:16:36.867Z,58.36
2023-03-12T03:17:36.852Z,55.87
2023-03-12T03:18:36.810Z,56.02
2023-03-12T03:19:36.826Z,55.86
2023-03-12T03:20:36.828Z,55.84
2023-03-12T03:21:36.870Z,56.20
2023-03-12T03:22:36.809Z,55.93
2023-03-12T03:23:36.811Z,55.89
2023-03-12T03:24:36.814Z,55.97
2023-03-12T03:25:36.768Z,55.69
2023-03-12T03:26:36.768Z,55.69
2023-03-12T03:27:36.830Z,55.69
2023-03-12T03:28:36.751Z,55.62
2023-03-12T03:29:36.769Z,55.96
2023-03-12T03:30:36.755Z,55.94
2023-03-12T03:31:36.737Z,55.82
2023-03-12T03:32:36.758Z,55.55
2023-03-12T03:33:36.809Z,55.74
2023-03-12T03:34:36.741Z,55.42
2023-03-12T03:35:36.745Z,55.45
2023-03-12T03:36:36.709Z,56.03
2023-03-12T03:37:36.706Z,56.23
2023-03-12T03:38:36.732Z,56.49
2023-03-12T03:39:37.147Z,56.14
2023-03-12T03:40:36.688Z,56.27
2023-03-12T03:41:36.683Z,56.03
2023-03-12T03:42:36.664Z,56.00
2023-03-12T03:43:36.675Z,55.95
2023-03-12T03:44:36.651Z,55.97
2023-03-12T03:45:36.688Z,56.05
2023-03-12T03:46:36.710Z,55.84
2023-03-12T03:47:36.657Z,56.02
2023-03-12T03:48:36.624Z,55.84
2023-03-12T03:49:36.609Z,55.74
2023-03-12T03:50:36.613Z,55.62
2023-03-12T03:51:36.661Z,55.03
2023-03-12T03:52:36.591Z,54.57
2023-03-12T03:53:36.586Z,54.80
2023-03-12T03:54:36.596Z,54.34
2023-03-12T03:55:36.606Z,54.39
2023-03-12T03:56:36.565Z,56.73
2023-03-12T03:57:36.606Z,55.44
2023-03-12T03:58:36.559Z,56.85
2023-03-12T03:59:36.572Z,56.48
2023-03-12T04:00:36.537Z,56.20
2023-03-12T04:01:36.504Z,55.63
2023-03-12T04:02:36.515Z,55.29
2023-03-12T04:03:36.670Z,55.72
2023-03-12T04:04:36.492Z,58.14
2023-03-12T04:05:36.535Z,55.83
2023-03-12T04:06:36.462Z,55.64
2023-03-12T04:07:36.492Z,55.62
2023-03-12T04:08:36.464Z,55.43
2023-03-12T04:09:36.495Z,55.47
2023-03-12T04:10:36.463Z,55.72
2023-03-12T04:11:36.524Z,55.60
2023-03-12T04:12:36.442Z,55.47
2023-03-12T04:13:36.456Z,55.64
2023-03-12T04:14:36.425Z,55.80
2023-03-12T04:15:36.484Z,55.75
2023-03-12T04:16:36.403Z,55.83
2023-03-12T04:17:36.400Z,55.52
2023-03-12T04:18:36.393Z,55.56
2023-03-12T04:19:36.396Z,55.40
2023-03-12T04:20:36.407Z,55.76
2023-03-12T04:21:36.417Z,55.31
2023-03-12T04:22:36.372Z,57.88
2023-03-12T04:23:36.387Z,56.94
2023-03-12T04:24:36.396Z,55.42
2023-03-12T04:25:36.344Z,55.49
2023-03-12T04:26:36.348Z,55.79
2023-03-12T04:27:36.364Z,55.82
2023-03-12T04:28:36.312Z,55.77
2023-03-12T04:29:36.324Z,55.55
2023-03-12T04:30:36.313Z,55.56
2023-03-12T04:31:36.370Z,55.34
2023-03-12T04:32:36.388Z,55.27
2023-03-12T04:33:36.356Z,55.19
2023-03-12T04:34:36.712Z,56.31
2023-03-12T04:35:36.306Z,54.75
2023-03-12T04:36:36.263Z,54.69
2023-03-12T04:37:57.281Z,54.85
2023-03-12T04:38:36.288Z,55.39
2023-03-12T04:39:36.314Z,56.49
2023-03-12T04:40:36.235Z,58.90
2023-03-12T04:41:36.287Z,57.97
2023-03-12T04:42:36.240Z,58.89
2023-03-12T04:43:36.220Z,56.79
2023-03-12T04:44:36.232Z,57.87
2023-03-12T04:45:36.268Z,55.93
2023-03-12T04:46:36.210Z,55.45
2023-03-12T04:47:36.380Z,56.16
2023-03-12T04:48:36.208Z,55.35
2023-03-12T04:49:36.158Z,55.91
2023-03-12T04:50:36.249Z,56.15
2023-03-12T04:51:36.229Z,57.39
2023-03-12T04:52:36.168Z,59.87
2023-03-12T04:53:36.214Z,58.08
2023-03-12T04:54:36.151Z,57.96
2023-03-12T04:55:36.167Z,56.81
2023-03-12T04:56:36.156Z,56.57
2023-03-12T04:57:36.177Z,56.76
2023-03-12T04:58:36.112Z,56.21
2023-03-12T04:59:36.119Z,55.81
2023-03-12T05:00:36.078Z,56.19
2023-03-12T05:01:36.094Z,57.04
2023-03-12T05:02:36.116Z,58.38
2023-03-12T05:03:36.119Z,56.67
2023-03-12T05:04:36.087Z,56.53
2023-03-12T05:05:36.074Z,56.16
2023-03-12T05:06:57.057Z,56.25
2023-03-12T05:07:36.055Z,56.23
2023-03-12T05:08:36.058Z,56.55
2023-03-12T05:09:36.090Z,56.66
2023-03-12T05:10:36.034Z,56.24
2023-03-12T05:11:37.848Z,57.66
2023-03-12T05:12:36.033Z,56.83
2023-03-12T05:13:36.012Z,57.99
2023-03-12T05:14:36.017Z,56.78
2023-03-12T05:15:36.042Z,56.06
2023-03-12T05:16:36.049Z,57.03
2023-03-12T05:17:35.997Z,58.28
2023-03-12T05:18:35.981Z,56.97
2023-03-12T05:19:35.982Z,57.70
2023-03-12T05:20:35.959Z,56.57
2023-03-12T05:21:36.009Z,57.95
2023-03-12T05:22:35.931Z,58.01
2023-03-12T05:23:35.931Z,57.46
2023-03-12T05:24:35.926Z,55.30
2023-03-12T05:25:35.937Z,56.62
2023-03-12T05:26:35.941Z,56.65
2023-03-12T05:27:35.989Z,56.31
2023-03-12T05:28:35.904Z,56.40
2023-03-12T05:29:35.891Z,58.28
2023-03-12T05:30:35.868Z,56.17
2023-03-12T05:31:35.924Z,56.34
2023-03-12T05:32:35.890Z,56.28
2023-03-12T05:33:35.911Z,56.18
2023-03-12T05:34:35.869Z,56.13
2023-03-12T05:35:35.909Z,57.15
2023-03-12T05:36:35.858Z,56.02
2023-03-12T05:37:35.814Z,56.89
2023-03-12T05:38:35.805Z,57.53
2023-03-12T05:39:35.841Z,57.85
2023-03-12T05:40:35.827Z,57.56
2023-03-12T05:41:35.834Z,56.20
2023-03-12T05:42:35.822Z,56.58
2023-03-12T05:43:35.822Z,56.87
2023-03-12T05:44:35.802Z,56.56
2023-03-12T05:45:36.056Z,57.80
2023-03-12T05:46:35.779Z,57.69
2023-03-12T05:47:35.769Z,56.70
2023-03-12T05:48:35.788Z,57.99
2023-03-12T05:49:35.738Z,55.60
2023-03-12T05:50:35.745Z,57.55
2023-03-12T05:51:35.740Z,56.02
2023-03-12T05:52:35.705Z,56.39
2023-03-12T05:53:35.729Z,56.18
2023-03-12T05:54:35.732Z,56.06
2023-03-12T05:55:35.713Z,55.60
2023-03-12T05:56:35.689Z,56.73
2023-03-12T05:57:35.756Z,58.74
2023-03-12T05:58:35.665Z,58.10
2023-03-12T05:59:35.664Z,58.20
2023-03-12T06:00:35.666Z,55.87
2023-03-12T06:01:35.663Z,56.59
2023-03-12T06:02:35.754Z,57.78
2023-03-12T06:03:35.709Z,56.62
2023-03-12T06:04:35.627Z,56.00
2023-03-12T06:05:35.633Z,56.51
2023-03-12T06:06:35.652Z,58.13
2023-03-12T06:07:35.602Z,57.26
2023-03-12T06:08:35.981Z,57.51
2023-03-12T06:09:35.631Z,57.43
2023-03-12T06:10:35.572Z,56.37
2023-03-12T06:11:35.581Z,56.40
2023-03-12T06:12:35.568Z,56.88
2023-03-12T06:13:35.561Z,58.62
2023-03-12T06:14:35.580Z,57.42
2023-03-12T06:15:35.610Z,57.15
2023-03-12T06:16:35.639Z,57.45
2023-03-12T06:17:35.531Z,57.13
2023-03-12T06:18:35.502Z,57.79
2023-03-12T06:19:35.510Z,58.57
2023-03-12T06:20:35.507Z,58.49
2023-03-12T06:21:35.685Z,57.28
2023-03-12T06:22:35.490Z,57.47
2023-03-12T06:23:35.503Z,56.99
2023-03-12T06:24:35.493Z,58.00
2023-03-12T06:25:35.516Z,56.82
2023-03-12T06:26:35.454Z,57.99
2023-03-12T06:27:35.537Z,59.70
2023-03-12T06:28:35.476Z,56.47
2023-03-12T06:29:35.430Z,56.93
2023-03-12T06:30:35.423Z,57.60
2023-03-12T06:31:38.124Z,57.14
2023-03-12T06:32:35.493Z,56.95
2023-03-12T06:33:35.470Z,56.65
2023-03-12T06:34:35.410Z,56.13
2023-03-12T06:35:35.410Z,57.74
2023-03-12T06:36:35.387Z,59.48
2023-03-12T06:37:35.377Z,59.19
2023-03-12T06:38:35.378Z,58.49
2023-03-12T06:39:35.418Z,58.80
2023-03-12T06:40:35.384Z,57.14
2023-03-12T06:41:35.373Z,56.88
2023-03-12T06:42:35.345Z,58.76
2023-03-12T06:43:35.342Z,58.00
2023-03-12T06:44:35.340Z,56.28
2023-03-12T06:45:35.833Z,58.57
2023-03-12T06:46:35.367Z,56.73
2023-03-12T06:47:35.307Z,55.98
2023-03-12T06:48:35.304Z,56.14
2023-03-12T06:49:35.293Z,56.85
2023-03-12T06:50:35.309Z,56.56
2023-03-12T06:51:35.307Z,56.41
2023-03-12T06:52:35.282Z,56.88
2023-03-12T06:53:35.271Z,56.02
2023-03-12T06:54:35.263Z,57.27
2023-03-12T06:55:35.254Z,56.01
2023-03-12T06:56:35.263Z,55.81
2023-03-12T06:57:35.259Z,57.18
2023-03-12T06:58:35.235Z,55.83
2023-03-12T06:59:35.238Z,58.46
2023-03-12T07:00:35.196Z,57.05
2023-03-12T07:01:35.204Z,57.94
2023-03-12T07:02:35.256Z,57.05
2023-03-12T07:03:35.241Z,56.78
2023-03-12T07:04:35.192Z,57.44
2023-03-12T07:05:35.192Z,57.70
2023-03-12T07:06:35.186Z,57.18
2023-03-12T07:07:35.147Z,56.37
2023-03-12T07:08:35.177Z,56.19
2023-03-12T07:09:35.197Z,55.69
2023-03-12T07:10:35.190Z,57.81
2023-03-12T07:11:35.299Z,58.42
2023-03-12T07:12:35.116Z,60.65
2023-03-12T07:13:35.120Z,57.22
2023-03-12T07:14:35.142Z,57.61
2023-03-12T07:15:35.137Z,57.86
2023-03-12T07:16:35.215Z,57.82
2023-03-12T07:17:35.103Z,58.43
2023-03-12T07:18:35.094Z,57.86
2023-03-12T07:19:35.087Z,56.33
2023-03-12T07:20:35.070Z,56.30
2023-03-12T07:21:35.146Z,54.97
2023-03-12T07:22:35.084Z,54.08
2023-03-12T07:23:35.059Z,55.51
2023-03-12T07:24:35.051Z,58.66
2023-03-12T07:25:51.258Z,57.37
2023-03-12T07:26:35.032Z,58.08
2023-03-12T07:27:35.101Z,57.07
2023-03-12T07:28:35.052Z,56.04
2023-03-12T07:29:35.026Z,55.73
2023-03-12T07:30:35.006Z,57.30
2023-03-12T07:31:35.020Z,56.06
2023-03-12T07:32:35.009Z,56.58
2023-03-12T07:33:35.200Z,56.46
2023-03-12T07:34:35.214Z,57.38
2023-03-12T07:35:35.058Z,58.24
2023-03-12T07:36:35.045Z,58.10
2023-03-12T07:37:34.960Z,57.31
2023-03-12T07:38:34.943Z,56.01
2023-03-12T07:39:35.063Z,55.28
2023-03-12T07:40:34.946Z,56.50
2023-03-12T07:41:34.928Z,56.78
2023-03-12T07:42:34.963Z,55.46
2023-03-12T07:43:34.981Z,59.62
2023-03-12T07:44:34.931Z,56.59
2023-03-12T07:45:34.978Z,56.26
2023-03-12T07:46:34.926Z,56.96
2023-03-12T07:47:35.029Z,55.83
2023-03-12T07:48:34.895Z,55.06
2023-03-12T07:49:34.863Z,58.29
2023-03-12T07:50:34.872Z,57.59
2023-03-12T07:51:35.425Z,57.26
2023-03-12T07:52:34.889Z,56.66
2023-03-12T07:53:34.845Z,58.37
2023-03-12T07:54:34.833Z,56.21
2023-03-12T07:55:34.910Z,56.26
2023-03-12T07:56:36.087Z,59.54
2023-03-12T07:57:34.876Z,57.28
2023-03-12T07:58:34.875Z,57.31
2023-03-12T07:59:34.795Z,57.68
2023-03-12T08:00:34.826Z,56.60
2023-03-12T08:01:34.815Z,56.71
2023-03-12T08:02:34.849Z,57.12
2023-03-12T08:03:35.067Z,56.77
2023-03-12T08:04:34.829Z,57.38
2023-03-12T08:05:34.812Z,58.83
2023-03-12T08:06:34.733Z,58.91
2023-03-12T08:07:34.781Z,57.39
2023-03-12T08:08:34.759Z,56.44
2023-03-12T08:09:34.743Z,55.84
2023-03-12T08:10:34.726Z,57.89
2023-03-12T08:11:34.703Z,56.70
2023-03-12T08:12:34.728Z,57.50
2023-03-12T08:13:34.837Z,56.38
2023-03-12T08:14:34.731Z,57.18
2023-03-12T08:15:34.730Z,57.50
2023-03-12T08:16:34.702Z,56.28
2023-03-12T08:17:34.640Z,56.36
2023-03-12T08:18:34.656Z,56.06
2023-03-12T08:19:34.623Z,55.93
2023-03-12T08:20:34.617Z,56.87
2023-03-12T08:21:34.682Z,57.43
2023-03-12T08:22:34.634Z,57.01
2023-03-12T08:23:34.601Z,58.66
2023-03-12T08:24:34.602Z,58.61
2023-03-12T08:25:34.585Z,59.28
2023-03-12T08:26:34.582Z,59.53
2023-03-12T08:27:34.629Z,58.95
2023-03-12T08:28:34.574Z,57.79
2023-03-12T08:29:34.564Z,55.88
2023-03-12T08:30:34.546Z,58.26
2023-03-12T08:31:34.594Z,57.93
2023-03-12T08:32:34.646Z,57.27
2023-03-12T08:33:34.560Z,55.57
2023-03-12T08:34:34.547Z,55.96
2023-03-12T08:35:34.541Z,61.94
2023-03-12T08:36:34.520Z,59.02
2023-03-12T08:37:34.510Z,57.74
2023-03-12T08:38:34.498Z,58.02
2023-03-12T08:39:34.520Z,58.76
2023-03-12T08:40:34.481Z,57.16
2023-03-12T08:41:34.500Z,58.99
2023-03-12T08:42:34.457Z,57.90
2023-03-12T08:43:34.461Z,57.97
2023-03-12T08:44:34.445Z,55.51
2023-03-12T08:45:34.532Z,55.92
2023-03-12T08:46:34.431Z,57.68
2023-03-12T08:47:34.458Z,59.73
2023-03-12T08:48:34.421Z,55.92
2023-03-12T08:49:34.414Z,57.50
2023-03-12T08:50:34.410Z,59.48
2023-03-12T08:51:34.442Z,59.21
2023-03-12T08:52:34.408Z,59.69
2023-03-12T08:53:34.417Z,59.97
2023-03-12T08:54:34.400Z,59.95
2023-03-12T08:55:34.366Z,59.07
2023-03-12T08:56:34.370Z,61.50
2023-03-12T08:57:34.454Z,59.96
2023-03-12T08:58:34.343Z,58.84
2023-03-12T08:59:34.359Z,59.70
2023-03-12T09:00:34.335Z,59.15
2023-03-12T09:01:34.324Z,56.47
2023-03-12T09:02:34.328Z,56.20
2023-03-12T09:03:34.363Z,58.57
2023-03-12T09:04:34.395Z,58.24
2023-03-12T09:05:34.317Z,58.14
2023-03-12T09:06:34.311Z,58.25
2023-03-12T09:07:34.299Z,58.53
2023-03-12T09:08:34.312Z,56.47
2023-03-12T09:09:34.315Z,59.13
2023-03-12T09:10:34.272Z,58.41
2023-03-12T09:11:34.347Z,59.00
2023-03-12T09:12:34.259Z,58.23
2023-03-12T09:13:57.828Z,57.67
2023-03-12T09:15:02.879Z,57.46
2023-03-12T09:15:35.255Z,59.37
2023-03-12T09:16:34.263Z,59.39
2023-03-12T09:17:34.221Z,59.91
2023-03-12T09:18:34.197Z,58.20
2023-03-12T09:19:34.201Z,58.63
2023-03-12T09:20:34.236Z,57.72
2023-03-12T09:21:34.184Z,59.23
2023-03-12T09:22:34.174Z,57.13
2023-03-12T09:23:34.171Z,60.75
2023-03-12T09:24:34.167Z,58.63
2023-03-12T09:25:34.147Z,59.08
2023-03-12T09:26:34.164Z,59.14
2023-03-12T09:27:34.147Z,60.47
2023-03-12T09:28:34.127Z,59.26
2023-03-12T09:29:34.139Z,58.81
2023-03-12T09:30:34.146Z,58.82
2023-03-12T09:31:34.123Z,58.64
2023-03-12T09:32:34.198Z,58.36
2023-03-12T09:33:34.102Z,60.09
2023-03-12T09:34:34.088Z,58.44
2023-03-12T09:35:34.111Z,59.57
2023-03-12T09:36:34.093Z,60.34
2023-03-12T09:37:34.080Z,61.00
2023-03-12T09:38:34.091Z,58.10
2023-03-12T09:39:34.060Z,59.36
2023-03-12T09:40:34.072Z,58.58
2023-03-12T09:41:34.034Z,59.93
2023-03-12T09:42:34.038Z,61.63
2023-03-12T09:43:38.285Z,59.09
2023-03-12T09:44:34.073Z,58.23
2023-03-12T09:45:34.001Z,58.21
2023-03-12T09:46:34.022Z,59.80
2023-03-12T09:47:33.995Z,58.59
2023-03-12T09:48:34.001Z,60.80
2023-03-12T09:49:33.996Z,59.82
2023-03-12T09:50:34.019Z,59.29
2023-03-12T09:51:33.980Z,57.90
2023-03-12T09:52:33.973Z,58.35
2023-03-12T09:53:33.980Z,59.16
2023-03-12T09:54:33.957Z,57.99
2023-03-12T09:55:33.950Z,59.68
2023-03-12T09:56:33.965Z,57.99
2023-03-12T09:57:33.933Z,60.29
2023-03-12T09:58:33.923Z,61.77
2023-03-12T09:59:33.921Z,60.43
2023-03-12T10:00:33.933Z,61.90
2023-03-12T10:01:33.907Z,57.55
2023-03-12T10:02:34.389Z,58.51
2023-03-12T10:03:33.899Z,59.78
2023-03-12T10:04:37.815Z,59.35
2023-03-12T10:05:34.895Z,58.51
2023-03-12T10:06:33.877Z,58.67
2023-03-12T10:07:33.861Z,58.69
2023-03-12T10:08:35.882Z,57.61
2023-03-12T10:09:33.857Z,57.88
2023-03-12T10:10:33.824Z,61.06
2023-03-12T10:11:33.835Z,59.13
2023-03-12T10:12:33.838Z,61.34
2023-03-12T10:13:33.832Z,59.08
2023-03-12T10:14:33.829Z,58.46
2023-03-12T10:15:33.849Z,60.56
2023-03-12T10:16:33.807Z,60.16
2023-03-12T10:17:33.776Z,59.33
2023-03-12T10:18:33.879Z,60.16
2023-03-12T10:19:33.805Z,58.37
2023-03-12T10:20:33.808Z,59.42
2023-03-12T10:21:33.768Z,60.69
2023-03-12T10:22:33.760Z,58.35
2023-03-12T10:23:33.761Z,59.24
2023-03-12T10:24:33.759Z,62.78
2023-03-12T10:25:33.723Z,60.53
2023-03-12T10:26:33.784Z,58.81
2023-03-12T10:27:33.715Z,58.16
2023-03-12T10:28:33.706Z,60.66
2023-03-12T10:29:33.711Z,60.71
2023-03-12T10:30:33.695Z,56.98
2023-03-12T10:31:33.689Z,58.01
2023-03-12T10:32:33.759Z,60.43
2023-03-12T10:33:33.684Z,58.54
2023-03-12T10:34:33.666Z,58.28
2023-03-12T10:35:33.735Z,58.72
2023-03-12T10:36:33.747Z,59.05
2023-03-12T10:37:33.642Z,57.21
2023-03-12T10:38:33.673Z,57.94
2023-03-12T10:39:33.629Z,59.41
2023-03-12T10:40:33.641Z,60.60
2023-03-12T10:41:35.014Z,60.12
2023-03-12T10:42:33.611Z,59.78
2023-03-12T10:43:33.601Z,62.16
2023-03-12T10:44:33.626Z,58.27
2023-03-12T10:45:33.587Z,60.61
2023-03-12T10:46:34.656Z,60.56
2023-03-12T10:47:33.599Z,59.99
2023-03-12T10:48:33.570Z,60.40
2023-03-12T10:49:33.553Z,62.11
2023-03-12T10:50:33.577Z,60.84
2023-03-12T10:51:33.546Z,58.34
2023-03-12T10:52:33.527Z,59.71
2023-03-12T10:53:33.550Z,61.16
2023-03-12T10:54:33.543Z,59.26
2023-03-12T10:55:33.528Z,62.79
2023-03-12T10:56:33.565Z,63.17
2023-03-12T10:57:33.500Z,61.06
2023-03-12T10:58:33.492Z,62.78
2023-03-12T10:59:33.491Z,61.36
2023-03-12T11:00:33.482Z,61.39
2023-03-12T11:01:33.496Z,60.99
2023-03-12T11:02:33.525Z,61.22
2023-03-12T11:03:33.468Z,60.25
2023-03-12T11:04:33.473Z,58.60
2023-03-12T11:05:33.552Z,60.36
2023-03-12T11:06:33.462Z,59.34
2023-03-12T11:07:33.458Z,59.96
2023-03-12T11:08:33.967Z,60.02
2023-03-12T11:09:33.443Z,60.66
2023-03-12T11:10:33.413Z,59.22
2023-03-12T11:11:33.396Z,61.23
2023-03-12T11:12:33.383Z,59.55
2023-03-12T11:13:33.445Z,60.76
2023-03-12T11:14:33.459Z,60.93
2023-03-12T11:15:33.390Z,59.31
2023-03-12T11:16:33.401Z,60.33
2023-03-12T11:17:33.353Z,60.26
2023-03-12T11:18:33.366Z,60.97
2023-03-12T11:19:33.380Z,60.30
2023-03-12T11:20:33.368Z,59.87
2023-03-12T11:21:33.328Z,59.02
2023-03-12T11:22:33.324Z,59.93
2023-03-12T11:23:33.328Z,60.53
2023-03-12T11:24:33.330Z,63.21
2023-03-12T11:25:33.357Z,63.12
2023-03-12T11:26:33.386Z,60.35
2023-03-12T11:27:33.294Z,58.36
2023-03-12T11:28:33.336Z,58.94
2023-03-12T11:29:33.501Z,59.85
2023-03-12T11:30:33.270Z,57.75
2023-03-12T11:31:33.279Z,60.09
2023-03-12T11:32:33.362Z,61.60
2023-03-12T11:33:33.243Z,59.98
2023-03-12T11:34:33.326Z,58.58
2023-03-12T11:35:33.273Z,58.62
2023-03-12T11:36:33.229Z,58.67
2023-03-12T11:37:33.230Z,59.50
2023-03-12T11:38:33.242Z,61.25
2023-03-12T11:39:33.185Z,61.01
2023-03-12T11:40:33.238Z,59.38
2023-03-12T11:41:33.204Z,59.96
2023-03-12T11:42:33.173Z,59.85
2023-03-12T11:43:43.191Z,59.94
2023-03-12T11:44:34.240Z,58.57
2023-03-12T11:45:33.154Z,58.74
2023-03-12T11:46:33.187Z,59.67
2023-03-12T11:47:33.164Z,60.08
2023-03-12T11:48:33.160Z,59.76
2023-03-12T11:49:33.138Z,60.49
2023-03-12T11:50:33.185Z,59.87
2023-03-12T11:51:34.214Z,60.00
2023-03-12T11:52:33.108Z,58.09
2023-03-12T11:53:33.085Z,57.54
2023-03-12T11:54:33.083Z,57.96
2023-03-12T11:55:33.070Z,58.97
2023-03-12T11:56:33.114Z,59.94
2023-03-12T11:57:33.064Z,59.55
2023-03-12T11:58:33.121Z,59.99
2023-03-12T11:59:33.091Z,58.74
2023-03-12T12:00:33.159Z,59.40
2023-03-12T12:01:33.142Z,58.85
2023-03-12T12:02:33.123Z,59.07
2023-03-12T12:03:33.064Z,60.45
2023-03-12T12:04:33.066Z,60.54
2023-03-12T12:05:33.013Z,60.37
2023-03-12T12:06:32.992Z,59.02
2023-03-12T12:07:35.962Z,59.43
2023-03-12T12:08:33.065Z,60.74
2023-03-12T12:09:33.015Z,58.17
2023-03-12T12:10:32.976Z,58.31
2023-03-12T12:11:32.965Z,61.41
2023-03-12T12:12:32.955Z,59.97
2023-03-12T12:13:32.963Z,60.30
2023-03-12T12:14:33.252Z,59.68
2023-03-12T12:15:32.955Z,61.01
2023-03-12T12:16:32.991Z,58.72
2023-03-12T12:17:33.026Z,58.71
2023-03-12T12:18:32.952Z,61.86
2023-03-12T12:19:32.968Z,60.24
2023-03-12T12:20:32.947Z,59.30
2023-03-12T12:21:32.928Z,59.55
2023-03-12T12:22:32.894Z,60.53
2023-03-12T12:23:32.939Z,59.25
2023-03-12T12:24:32.892Z,59.92
2023-03-12T12:25:32.910Z,61.32
2023-03-12T12:26:32.940Z,60.73
2023-03-12T12:27:32.869Z,61.67
2023-03-12T12:28:32.853Z,61.25
2023-03-12T12:29:34.941Z,61.11
2023-03-12T12:30:32.883Z,59.95
2023-03-12T12:31:32.889Z,61.04
2023-03-12T12:32:32.946Z,58.76
2023-03-12T12:33:32.804Z,59.40
2023-03-12T12:34:32.804Z,61.29
2023-03-12T12:35:32.856Z,58.96
2023-03-12T12:36:32.806Z,60.09
2023-03-12T12:37:32.813Z,59.32
2023-03-12T12:38:32.862Z,58.99
2023-03-12T12:39:32.769Z,59.68
2023-03-12T12:40:32.759Z,59.42
2023-03-12T12:41:32.754Z,58.77
2023-03-12T12:42:32.757Z,60.03
2023-03-12T12:43:32.728Z,59.31
2023-03-12T12:44:32.808Z,60.35
2023-03-12T12:45:32.735Z,59.22
2023-03-12T12:46:32.765Z,59.57
2023-03-12T12:47:32.708Z,61.43
2023-03-12T12:48:32.706Z,62.31
2023-03-12T12:49:32.701Z,60.29
2023-03-12T12:50:32.752Z,59.24
2023-03-12T12:51:35.208Z,59.33
2023-03-12T12:52:32.672Z,59.88